This is the latest recevied weather packets stored in our database for station/object OE5XFR. If no packets are shown the sender has not sent any weather packets the latest 1 day(s).
| Time | Temp. | Humidity | Pressure | Rain* | Wind** | Luminosity | Snow |
|---|---|---|---|---|---|---|---|
| 1778098154 | 11.67° C | 93% | 1010 hPa | 0 mm | - | - | - |
| 1778097434 | 12.22° C | 93% | 1010 hPa | 2.03 mm | - | - | - |
| 1778095994 | 12.22° C | 92% | 1009 hPa | 1.52 mm | - | - | - |
| 1778095275 | 12.78° C | 92% | 1009 hPa | 1.02 mm | - | - | - |
| 1778094555 | 12.78° C | 90% | 1009 hPa | 0 mm | - | - | - |
| 1778093835 | 13.33° C | 89% | 1008 hPa | 0 mm | - | - | - |
| 1778093115 | 13.33° C | 88% | 1008 hPa | 0 mm | - | - | - |
| 1778092395 | 13.33° C | 84% | 1007 hPa | 0 mm | - | - | - |
| 1778091675 | 13.33° C | 77% | 1007 hPa | 0 mm | - | - | - |
| 1778090955 | 14.44° C | 56% | 1007 hPa | 0 mm | - | - | - |
| 1778088795 | 17.78° C | 42% | 1005 hPa | 0 mm | - | - | - |
| 1778088075 | 21.11° C | 32% | 1004 hPa | 0 mm | - | - | - |
| 1778087355 | 21.67° C | 29% | 1003 hPa | 0 mm | - | - | - |
| 1778086635 | 21.67° C | 32% | 1004 hPa | 0 mm | - | - | - |
| 1778085195 | 21.67° C | 33% | 1004 hPa | 0 mm | - | - | - |
| 1778083035 | 22.22° C | 32% | 1004 hPa | 0 mm | - | - | - |
| 1778082315 | 22.22° C | 32% | 1004 hPa | 0 mm | - | - | - |
| 1778078715 | 21.11° C | 37% | 1005 hPa | 0 mm | - | - | - |
| 1778077995 | 21.11° C | 37% | 1005 hPa | 0 mm | - | - | - |
| 1778076555 | 20.56° C | 39% | 1006 hPa | 0 mm | - | - | - |
| 1778070077 | 19.44° C | 40% | 1007 hPa | 0 mm | - | - | - |
| 1778069357 | 18.89° C | 42% | 1007 hPa | 0 mm | - | - | - |
| 1778067916 | 18.33° C | 47% | 1007 hPa | 0 mm | - | - | - |
| 1778067195 | 18.33° C | 46% | 1007 hPa | 0 mm | - | - | - |
| 1778065755 | 17.78° C | 48% | 1008 hPa | 0 mm | - | - | - |
* Rain latest hour (hover to see other rain measurements)
** Current wind speed in m/s (hover to see current wind gust speed)